createdAt,value
2023-04-29T00:00:21.608Z,11.10
2023-04-29T00:00:44.592Z,10.93
2023-04-29T00:01:07.287Z,11.07
2023-04-29T00:01:30.752Z,11.40
2023-04-29T00:01:53.689Z,11.00
2023-04-29T00:02:16.568Z,11.88
2023-04-29T00:02:39.720Z,11.85
2023-04-29T00:03:02.820Z,11.65
2023-04-29T00:03:29.465Z,12.13
2023-04-29T00:03:52.888Z,12.13
2023-04-29T00:04:16.110Z,12.20
2023-04-29T00:04:39.862Z,12.98
2023-04-29T00:05:05.460Z,12.93
2023-04-29T00:05:28.585Z,12.07
2023-04-29T00:05:51.684Z,11.98
2023-04-29T00:06:15.174Z,12.32
2023-04-29T00:06:38.232Z,12.95
2023-04-29T00:07:00.962Z,13.15
2023-04-29T00:07:23.737Z,13.20
2023-04-29T00:07:46.427Z,12.63
2023-04-29T00:08:09.461Z,13.32
2023-04-29T00:08:32.284Z,13.18
2023-04-29T00:08:55.115Z,13.10
2023-04-29T00:09:17.875Z,12.98
2023-04-29T00:09:41.006Z,13.05
2023-04-29T00:10:04.138Z,13.00
2023-04-29T00:10:29.129Z,13.20
2023-04-29T00:10:51.924Z,13.45
2023-04-29T00:11:14.748Z,13.40
2023-04-29T00:11:37.465Z,12.93
2023-04-29T00:12:00.208Z,13.45
2023-04-29T00:12:23.472Z,13.88
2023-04-29T00:12:46.245Z,13.95
2023-04-29T00:13:09.033Z,14.05
2023-04-29T00:13:31.748Z,13.18
2023-04-29T00:13:54.479Z,13.27
2023-04-29T00:14:17.450Z,13.88
2023-04-29T00:14:43.761Z,14.45
2023-04-29T00:15:08.980Z,14.80
2023-04-29T00:15:31.656Z,14.98
2023-04-29T00:15:54.441Z,15.10
2023-04-29T00:16:17.645Z,15.10
2023-04-29T00:16:40.891Z,15.32
2023-04-29T00:17:04.232Z,15.75
2023-04-29T00:17:27.069Z,15.60
2023-04-29T00:17:50.984Z,15.73
2023-04-29T00:18:14.269Z,15.55
2023-04-29T00:18:38.248Z,16.23
2023-04-29T00:19:00.973Z,16.50
2023-04-29T00:19:23.739Z,16.50
2023-04-29T00:19:46.470Z,16.83
2023-04-29T00:20:12.083Z,16.60
2023-04-29T00:20:34.746Z,17.15
2023-04-29T00:20:57.529Z,17.15
2023-04-29T00:21:21.177Z,17.48
2023-04-29T00:21:44.017Z,17.70
2023-04-29T00:22:06.799Z,18.13
2023-04-29T00:22:30.246Z,17.85
2023-04-29T00:22:53.015Z,18.42
2023-04-29T00:23:15.754Z,18.70
2023-04-29T00:23:38.434Z,18.17
2023-04-29T00:24:01.447Z,18.27
2023-04-29T00:24:24.260Z,17.88
2023-04-29T00:24:46.957Z,18.42
2023-04-29T00:25:10.920Z,18.08
2023-04-29T00:25:35.543Z,18.52
2023-04-29T00:25:58.206Z,18.02
2023-04-29T00:26:20.965Z,18.50
2023-04-29T00:26:43.713Z,18.10
2023-04-29T00:27:06.764Z,17.77
2023-04-29T00:27:29.496Z,18.40
2023-04-29T00:27:52.614Z,18.30
2023-04-29T00:28:15.288Z,17.58
2023-04-29T00:28:37.994Z,17.80
2023-04-29T00:29:00.697Z,17.48
2023-04-29T00:29:23.990Z,17.73
2023-04-29T00:29:46.712Z,17.88
2023-04-29T00:30:10.493Z,17.30
2023-04-29T00:30:34.445Z,17.38
2023-04-29T00:30:57.292Z,16.65
2023-04-29T00:31:20.164Z,16.75
2023-04-29T00:31:43.010Z,17.20
2023-04-29T00:32:06.110Z,16.75
2023-04-29T00:32:28.947Z,17.45
2023-04-29T00:32:51.725Z,17.13
2023-04-29T00:33:14.554Z,17.20
2023-04-29T00:33:37.361Z,16.88
2023-04-29T00:34:00.170Z,16.88
2023-04-29T00:34:23.202Z,17.05
2023-04-29T00:34:46.251Z,17.50
2023-04-29T00:35:10.001Z,17.50
2023-04-29T00:35:32.851Z,17.27
2023-04-29T00:35:55.819Z,17.13
2023-04-29T00:36:18.711Z,17.30
2023-04-29T00:36:41.459Z,17.50
2023-04-29T00:37:04.199Z,16.38
2023-04-29T00:37:27.005Z,16.92
2023-04-29T00:37:49.733Z,16.67
2023-04-29T00:38:12.464Z,17.25
2023-04-29T00:38:35.150Z,17.30
2023-04-29T00:38:58.410Z,17.05
2023-04-29T00:39:21.143Z,16.90
2023-04-29T00:39:43.845Z,17.23
2023-04-29T00:40:08.749Z,17.23
2023-04-29T00:40:31.858Z,17.40
2023-04-29T00:40:56.112Z,16.80
2023-04-29T00:41:18.896Z,16.67
2023-04-29T00:41:41.668Z,16.63
2023-04-29T00:42:04.992Z,17.42
2023-04-29T00:42:28.322Z,17.42
2023-04-29T00:42:51.076Z,18.35
2023-04-29T00:43:13.950Z,17.27
2023-04-29T00:43:36.683Z,17.58
2023-04-29T00:43:59.513Z,17.48
2023-04-29T00:44:22.575Z,17.38
2023-04-29T00:44:45.442Z,17.05
2023-04-29T00:45:10.112Z,17.25
2023-04-29T00:45:33.354Z,18.30
2023-04-29T00:45:56.119Z,16.80
2023-04-29T00:46:18.912Z,16.60
2023-04-29T00:46:41.796Z,16.85
2023-04-29T00:47:05.134Z,17.83
2023-04-29T00:47:27.934Z,17.15
2023-04-29T00:47:50.837Z,16.77
2023-04-29T00:48:15.476Z,17.10
2023-04-29T00:48:38.586Z,17.23
2023-04-29T00:49:01.350Z,17.27
2023-04-29T00:49:24.340Z,17.73
2023-04-29T00:49:47.136Z,17.00
2023-04-29T00:50:10.383Z,17.10
2023-04-29T00:50:33.115Z,17.40
2023-04-29T00:50:56.484Z,17.92
2023-04-29T00:51:19.301Z,17.38
2023-04-29T00:51:42.249Z,17.58
2023-04-29T00:52:04.985Z,17.92
2023-04-29T00:52:28.351Z,17.73
2023-04-29T00:52:52.045Z,18.13
2023-04-29T00:53:16.046Z,17.45
2023-04-29T00:53:39.374Z,17.85
2023-04-29T00:54:02.258Z,18.10
2023-04-29T00:54:24.968Z,17.27
2023-04-29T00:54:49.154Z,17.55
2023-04-29T00:55:13.176Z,17.63
2023-04-29T00:55:35.979Z,18.40
2023-04-29T00:56:00.996Z,19.13
2023-04-29T00:56:24.821Z,18.50
2023-04-29T00:56:47.759Z,18.00
2023-04-29T00:57:10.580Z,17.95
2023-04-29T00:57:34.646Z,18.23
2023-04-29T00:57:58.236Z,18.27
2023-04-29T00:58:22.264Z,18.13
2023-04-29T00:58:50.101Z,19.13
2023-04-29T00:59:12.941Z,18.55
2023-04-29T00:59:35.751Z,18.83
2023-04-29T00:59:59.571Z,18.08
2023-04-29T01:00:22.556Z,18.10
2023-04-29T01:00:47.019Z,19.13
2023-04-29T01:01:10.292Z,18.13
2023-04-29T01:01:32.996Z,17.88
2023-04-29T01:01:55.764Z,18.25
2023-04-29T01:02:18.795Z,18.70
2023-04-29T01:02:41.522Z,18.77
2023-04-29T01:03:04.881Z,18.58
2023-04-29T01:03:28.634Z,18.35
2023-04-29T01:03:51.820Z,18.60
2023-04-29T01:04:15.105Z,18.75
2023-04-29T01:04:38.176Z,19.42
2023-04-29T01:05:01.303Z,18.70
2023-04-29T01:05:24.646Z,18.75
2023-04-29T01:05:47.515Z,18.75
2023-04-29T01:06:19.268Z,18.02
2023-04-29T01:06:50.091Z,18.38
2023-04-29T01:07:16.080Z,19.80
2023-04-29T01:07:43.346Z,19.73
2023-04-29T01:08:15.387Z,20.40
2023-04-29T01:08:44.558Z,19.20
2023-04-29T01:09:15.284Z,19.55
2023-04-29T01:09:54.324Z,20.65
2023-04-29T01:10:22.487Z,19.63
2023-04-29T01:10:49.782Z,20.30
2023-04-29T01:11:13.992Z,20.45
2023-04-29T01:11:40.476Z,20.27
2023-04-29T01:12:11.771Z,20.23
2023-04-29T01:12:38.875Z,20.80
2023-04-29T01:13:06.098Z,20.27
2023-04-29T01:13:31.199Z,19.27
2023-04-29T01:13:58.579Z,20.70
2023-04-29T01:14:21.407Z,20.73
2023-04-29T01:14:45.251Z,20.42
2023-04-29T01:15:12.723Z,19.95
2023-04-29T01:15:39.193Z,19.83
2023-04-29T01:16:05.350Z,20.45
2023-04-29T01:16:31.683Z,19.73
2023-04-29T01:16:57.208Z,19.98
2023-04-29T01:17:20.612Z,19.10
2023-04-29T01:17:51.274Z,19.33
2023-04-29T01:18:17.958Z,20.02
2023-04-29T01:18:44.039Z,19.92
2023-04-29T01:19:16.161Z,19.85
2023-04-29T01:19:46.812Z,20.35
2023-04-29T01:20:10.736Z,20.17
2023-04-29T01:20:33.823Z,20.48
2023-04-29T01:20:57.123Z,19.92
2023-04-29T01:21:20.486Z,19.45
2023-04-29T01:21:48.887Z,20.52
2023-04-29T01:22:12.465Z,19.27
2023-04-29T01:22:36.679Z,19.88
2023-04-29T01:22:59.503Z,19.13
2023-04-29T01:23:27.671Z,19.52
2023-04-29T01:23:56.111Z,19.08
2023-04-29T01:24:19.463Z,19.52
2023-04-29T01:24:42.236Z,19.80
2023-04-29T01:25:06.380Z,19.98
2023-04-29T01:25:29.132Z,18.80
2023-04-29T01:25:51.854Z,19.60
2023-04-29T01:26:14.909Z,18.75
2023-04-29T01:26:37.918Z,19.15
2023-04-29T01:27:05.409Z,18.83
2023-04-29T01:27:32.140Z,19.52
2023-04-29T01:28:01.917Z,19.10
2023-04-29T01:28:33.614Z,18.90
2023-04-29T01:29:00.573Z,18.95
2023-04-29T01:29:27.539Z,18.95
2023-04-29T01:29:56.566Z,19.05
2023-04-29T01:30:23.106Z,19.65
2023-04-29T01:30:49.288Z,19.63
2023-04-29T01:31:15.967Z,19.45
2023-04-29T01:31:52.278Z,17.80
2023-04-29T01:32:18.234Z,19.35
2023-04-29T01:32:51.243Z,18.38
2023-04-29T01:33:17.597Z,17.98
2023-04-29T01:33:42.571Z,18.15
2023-04-29T01:34:09.661Z,18.15
2023-04-29T01:34:36.780Z,18.75
2023-04-29T01:35:04.570Z,18.40
2023-04-29T01:35:36.955Z,17.80
2023-04-29T01:36:06.373Z,18.35
2023-04-29T01:36:35.733Z,19.05
2023-04-29T01:37:03.221Z,17.52
2023-04-29T01:37:29.366Z,18.08
2023-04-29T01:37:57.698Z,18.20
2023-04-29T01:38:26.886Z,17.98
2023-04-29T01:38:53.791Z,18.08
2023-04-29T01:39:21.459Z,17.55
2023-04-29T01:39:46.669Z,17.77
2023-04-29T01:40:12.571Z,17.73
2023-04-29T01:40:38.537Z,17.80
2023-04-29T01:41:07.439Z,18.00
2023-04-29T01:41:36.179Z,18.90
2023-04-29T01:42:04.936Z,18.33
2023-04-29T01:42:31.214Z,17.60
2023-04-29T01:43:00.132Z,18.23
2023-04-29T01:43:25.014Z,17.70
2023-04-29T01:43:48.655Z,17.90
2023-04-29T01:44:15.364Z,17.80
2023-04-29T01:44:38.160Z,17.88
2023-04-29T01:45:02.241Z,17.23
2023-04-29T01:45:25.064Z,16.95
2023-04-29T01:45:47.889Z,17.10
2023-04-29T01:46:12.029Z,16.90
2023-04-29T01:46:34.934Z,17.45
2023-04-29T01:46:57.791Z,16.77
2023-04-29T01:47:21.744Z,17.02
2023-04-29T01:47:45.150Z,17.50
2023-04-29T01:48:08.234Z,17.48
2023-04-29T01:48:31.260Z,17.77
2023-04-29T01:48:55.244Z,17.67
2023-04-29T01:49:21.456Z,17.60
2023-04-29T01:49:46.843Z,17.45
2023-04-29T01:50:13.323Z,16.77
2023-04-29T01:50:36.351Z,16.75
2023-04-29T01:50:59.071Z,17.35
2023-04-29T01:51:22.080Z,17.63
2023-04-29T01:51:44.826Z,17.67
2023-04-29T01:52:07.527Z,17.48
2023-04-29T01:52:30.259Z,17.65
2023-04-29T01:52:52.985Z,17.80
2023-04-29T01:53:16.015Z,17.95
2023-04-29T01:53:40.665Z,17.40
2023-04-29T01:54:05.653Z,18.00
2023-04-29T01:54:28.406Z,17.35
2023-04-29T01:54:51.472Z,17.33
2023-04-29T01:55:14.258Z,17.33
2023-04-29T01:55:37.041Z,16.65
2023-04-29T01:55:59.853Z,17.23
2023-04-29T01:56:22.738Z,16.98
2023-04-29T01:56:45.450Z,16.40
2023-04-29T01:57:08.300Z,17.65
2023-04-29T01:57:30.992Z,17.48
2023-04-29T01:57:53.672Z,17.00
2023-04-29T01:58:16.434Z,16.45
2023-04-29T01:58:39.102Z,16.45
2023-04-29T01:59:02.251Z,17.40
2023-04-29T01:59:25.055Z,17.48
2023-04-29T01:59:48.325Z,17.65
2023-04-29T02:00:12.295Z,17.83
2023-04-29T02:00:35.070Z,17.65
2023-04-29T02:00:57.897Z,17.80
2023-04-29T02:01:20.820Z,18.10
2023-04-29T02:01:44.191Z,17.90
2023-04-29T02:02:06.881Z,17.70
2023-04-29T02:02:29.723Z,17.52
2023-04-29T02:02:52.549Z,17.75
2023-04-29T02:03:15.455Z,17.10
2023-04-29T02:03:38.421Z,18.42
2023-04-29T02:04:01.674Z,18.15
2023-04-29T02:04:25.238Z,18.17
2023-04-29T02:05:11.870Z,17.80
2023-04-29T02:05:36.004Z,18.38
2023-04-29T02:05:59.373Z,17.90
2023-04-29T02:06:22.208Z,18.55
2023-04-29T02:06:44.959Z,18.30
2023-04-29T02:07:07.692Z,17.95
2023-04-29T02:07:31.362Z,18.30
2023-04-29T02:07:54.168Z,18.02
2023-04-29T02:08:17.391Z,18.15
2023-04-29T02:08:40.159Z,18.55
2023-04-29T02:09:04.413Z,18.13
2023-04-29T02:09:27.151Z,18.08
2023-04-29T02:09:50.147Z,18.42
2023-04-29T02:10:13.125Z,17.80
2023-04-29T02:10:35.966Z,17.60
2023-04-29T02:11:00.123Z,17.13
2023-04-29T02:11:22.813Z,17.77
2023-04-29T02:11:45.605Z,18.63
2023-04-29T02:12:08.421Z,19.00
2023-04-29T02:12:31.161Z,18.52
2023-04-29T02:12:54.249Z,18.98
2023-04-29T02:13:16.963Z,18.33
2023-04-29T02:13:39.715Z,18.17
2023-04-29T02:14:02.455Z,18.15
2023-04-29T02:14:25.160Z,18.42
2023-04-29T02:14:50.642Z,17.98
2023-04-29T02:15:13.441Z,18.63
2023-04-29T02:15:36.380Z,18.52
2023-04-29T02:16:01.470Z,18.35
2023-04-29T02:16:24.409Z,18.10
2023-04-29T02:16:47.346Z,17.35
2023-04-29T02:17:10.579Z,17.92
2023-04-29T02:17:34.929Z,18.10
2023-04-29T02:17:57.801Z,17.85
2023-04-29T02:18:20.978Z,17.75
2023-04-29T02:18:43.617Z,17.77
2023-04-29T02:19:06.371Z,18.02
2023-04-29T02:19:29.375Z,17.92
2023-04-29T02:19:52.587Z,18.13
2023-04-29T02:20:18.510Z,18.40
2023-04-29T02:20:41.910Z,17.80
2023-04-29T02:21:04.821Z,18.15
2023-04-29T02:21:27.714Z,18.30
2023-04-29T02:21:50.503Z,17.95
2023-04-29T02:22:13.139Z,18.80
2023-04-29T02:22:35.915Z,18.40
2023-04-29T02:22:58.666Z,17.73
2023-04-29T02:23:21.761Z,18.20
2023-04-29T02:23:44.667Z,17.85
2023-04-29T02:24:08.829Z,18.10
2023-04-29T02:24:31.525Z,18.30
2023-04-29T02:24:54.598Z,18.23
2023-04-29T02:25:17.563Z,18.05
2023-04-29T02:25:40.358Z,18.00
2023-04-29T02:26:05.750Z,17.83
2023-04-29T02:26:28.484Z,18.10
2023-04-29T02:26:51.371Z,18.95
2023-04-29T02:27:14.259Z,18.15
2023-04-29T02:27:37.490Z,17.60
2023-04-29T02:28:00.193Z,17.98
2023-04-29T02:28:24.168Z,18.48
2023-04-29T02:28:47.344Z,18.63
2023-04-29T02:29:10.049Z,18.92
2023-04-29T02:29:33.630Z,17.85
2023-04-29T02:29:56.667Z,17.83
2023-04-29T02:30:19.352Z,17.63
2023-04-29T02:30:42.119Z,17.52
2023-04-29T02:31:04.881Z,18.33
2023-04-29T02:31:29.291Z,17.92
2023-04-29T02:31:52.494Z,17.63
2023-04-29T02:32:16.091Z,17.85
2023-04-29T02:32:39.575Z,17.70
2023-04-29T02:33:02.452Z,17.75
2023-04-29T02:33:25.208Z,17.35
2023-04-29T02:33:48.155Z,17.65
2023-04-29T02:34:11.104Z,17.13
2023-04-29T02:34:33.832Z,17.27
2023-04-29T02:34:56.805Z,16.90
2023-04-29T02:35:19.608Z,17.80
2023-04-29T02:35:42.380Z,17.58
2023-04-29T02:36:06.001Z,17.15
2023-04-29T02:36:28.740Z,17.45
2023-04-29T02:36:51.608Z,17.95
2023-04-29T02:37:14.391Z,18.27
2023-04-29T02:37:37.126Z,18.25
2023-04-29T02:37:59.981Z,18.20
2023-04-29T02:38:22.724Z,17.95
2023-04-29T02:38:45.372Z,17.08
2023-04-29T02:39:09.520Z,17.15
2023-04-29T02:39:32.285Z,17.98
2023-04-29T02:39:55.354Z,17.58
2023-04-29T02:40:18.603Z,17.42
2023-04-29T02:40:44.816Z,17.85
2023-04-29T02:41:07.684Z,17.83
2023-04-29T02:41:30.663Z,18.48
2023-04-29T02:41:55.372Z,18.48
2023-04-29T02:42:18.216Z,18.27
2023-04-29T02:42:41.012Z,17.27
2023-04-29T02:43:03.805Z,16.27
2023-04-29T02:43:26.679Z,17.02
2023-04-29T02:43:49.448Z,16.90
2023-04-29T02:44:12.672Z,17.17
2023-04-29T02:44:36.006Z,16.77
2023-04-29T02:44:58.724Z,17.48
2023-04-29T02:45:21.766Z,17.88
2023-04-29T02:45:44.829Z,18.02
2023-04-29T02:46:07.644Z,17.73
2023-04-29T02:46:30.584Z,17.73
2023-04-29T02:46:53.336Z,17.75
2023-04-29T02:47:16.053Z,17.90
2023-04-29T02:47:38.713Z,17.83
2023-04-29T02:48:01.541Z,17.55
2023-04-29T02:48:24.355Z,17.67
2023-04-29T02:48:47.044Z,18.42
2023-04-29T02:49:09.865Z,18.88
2023-04-29T02:49:32.556Z,18.02
2023-04-29T02:49:55.285Z,17.98
2023-04-29T02:50:18.125Z,17.95
2023-04-29T02:50:40.832Z,18.58
2023-04-29T02:51:03.747Z,18.83
2023-04-29T02:51:26.982Z,19.02
2023-04-29T02:51:52.897Z,18.67
2023-04-29T02:52:17.041Z,18.90
2023-04-29T02:52:41.940Z,19.25
2023-04-29T02:53:04.748Z,18.25
2023-04-29T02:53:27.746Z,18.30
2023-04-29T02:53:50.556Z,18.77
2023-04-29T02:54:14.877Z,18.80
2023-04-29T02:54:38.248Z,19.02
2023-04-29T02:55:01.027Z,19.27
2023-04-29T02:55:23.805Z,19.40
2023-04-29T02:55:47.321Z,19.13
2023-04-29T02:56:10.055Z,19.30
2023-04-29T02:56:32.822Z,19.15
2023-04-29T02:56:55.762Z,19.25
2023-04-29T02:57:18.713Z,19.20
2023-04-29T02:57:41.517Z,19.70
2023-04-29T02:58:04.318Z,18.85
2023-04-29T02:58:27.075Z,18.83
2023-04-29T02:58:49.780Z,19.52
2023-04-29T02:59:12.500Z,19.95
2023-04-29T02:59:35.237Z,19.83
2023-04-29T02:59:57.952Z,19.67
2023-04-29T03:00:21.626Z,19.98
2023-04-29T03:00:44.324Z,19.85
2023-04-29T03:01:07.450Z,19.50
2023-04-29T03:01:30.296Z,19.98
2023-04-29T03:01:54.762Z,20.70
2023-04-29T03:02:17.512Z,19.52
2023-04-29T03:02:40.506Z,19.98
2023-04-29T03:03:03.973Z,19.98
2023-04-29T03:03:27.050Z,19.50
2023-04-29T03:03:50.237Z,19.80
2023-04-29T03:04:13.451Z,18.98
2023-04-29T03:04:36.396Z,18.77
2023-04-29T03:04:59.187Z,18.73
2023-04-29T03:05:22.050Z,19.45
2023-04-29T03:05:44.803Z,19.60
2023-04-29T03:06:07.528Z,20.13
2023-04-29T03:06:30.298Z,20.25
2023-04-29T03:06:52.987Z,20.73
2023-04-29T03:07:17.627Z,20.40
2023-04-29T03:07:40.368Z,19.45
2023-04-29T03:08:04.892Z,19.63
2023-04-29T03:08:28.341Z,20.60
2023-04-29T03:08:51.381Z,20.60
2023-04-29T03:09:15.708Z,20.60
2023-04-29T03:09:38.762Z,19.65
2023-04-29T03:10:01.777Z,20.48
2023-04-29T03:10:24.488Z,20.60
2023-04-29T03:10:47.855Z,20.30
2023-04-29T03:11:10.632Z,20.13
2023-04-29T03:11:33.407Z,19.98
2023-04-29T03:11:56.281Z,19.70
2023-04-29T03:12:18.980Z,19.42
2023-04-29T03:12:41.695Z,19.80
2023-04-29T03:13:04.479Z,19.52
2023-04-29T03:13:27.364Z,19.25
2023-04-29T03:13:50.030Z,18.38
2023-04-29T03:14:12.819Z,17.77
2023-04-29T03:14:36.579Z,18.30
2023-04-29T03:14:59.417Z,16.67
2023-04-29T03:15:22.139Z,17.45
2023-04-29T03:15:44.897Z,17.90
2023-04-29T03:16:08.884Z,17.30
2023-04-29T03:16:31.683Z,16.98
2023-04-29T03:16:56.639Z,17.10
2023-04-29T03:17:19.552Z,17.00
2023-04-29T03:17:42.307Z,16.67
2023-04-29T03:18:05.346Z,16.95
2023-04-29T03:18:28.338Z,17.10
2023-04-29T03:18:51.039Z,16.75
2023-04-29T03:19:13.867Z,17.80
2023-04-29T03:19:36.751Z,17.02
2023-04-29T03:19:59.472Z,17.40
2023-04-29T03:20:22.422Z,16.77
2023-04-29T03:20:45.205Z,16.85
2023-04-29T03:21:08.030Z,17.00
2023-04-29T03:21:30.751Z,17.20
2023-04-29T03:21:54.043Z,17.05
2023-04-29T03:22:17.198Z,16.42
2023-04-29T03:22:39.886Z,16.20
2023-04-29T03:23:02.882Z,16.65
2023-04-29T03:23:26.887Z,16.80
2023-04-29T03:23:50.455Z,16.65
2023-04-29T03:24:13.219Z,16.67
2023-04-29T03:24:37.440Z,16.35
2023-04-29T03:25:00.203Z,16.38
2023-04-29T03:25:23.078Z,16.95
2023-04-29T03:25:45.785Z,16.95
2023-04-29T03:26:09.223Z,16.90
2023-04-29T03:26:32.411Z,17.02
2023-04-29T03:26:55.199Z,16.58
2023-04-29T03:27:17.914Z,16.25
2023-04-29T03:27:40.747Z,15.90
2023-04-29T03:28:04.359Z,16.75
2023-04-29T03:28:27.366Z,16.75
2023-04-29T03:28:50.131Z,16.65
2023-04-29T03:29:12.836Z,16.65
2023-04-29T03:29:38.077Z,16.13
2023-04-29T03:30:00.999Z,16.63
2023-04-29T03:30:23.611Z,16.47
2023-04-29T03:30:46.332Z,16.52
2023-04-29T03:31:09.159Z,16.70
2023-04-29T03:31:32.025Z,17.08
2023-04-29T03:31:54.836Z,17.00
2023-04-29T03:32:17.642Z,16.38
2023-04-29T03:32:40.381Z,16.23
2023-04-29T03:33:03.260Z,16.35
2023-04-29T03:33:26.017Z,16.23
2023-04-29T03:33:48.809Z,16.25
2023-04-29T03:34:12.005Z,16.60
2023-04-29T03:34:35.076Z,16.52
2023-04-29T03:34:57.914Z,16.70
2023-04-29T03:35:20.806Z,16.27
2023-04-29T03:35:44.192Z,17.20
2023-04-29T03:36:08.818Z,16.88
2023-04-29T03:36:31.528Z,16.65
2023-04-29T03:36:54.370Z,16.55
2023-04-29T03:37:17.125Z,17.23
2023-04-29T03:37:39.853Z,17.55
2023-04-29T03:38:05.001Z,17.48
2023-04-29T03:38:27.892Z,17.10
2023-04-29T03:38:50.639Z,17.35
2023-04-29T03:39:13.383Z,17.55
2023-04-29T03:39:37.524Z,17.73
2023-04-29T03:40:00.418Z,17.95
2023-04-29T03:40:23.189Z,17.45
2023-04-29T03:40:45.923Z,17.17
2023-04-29T03:41:08.650Z,17.73
2023-04-29T03:41:31.350Z,17.60
2023-04-29T03:41:54.080Z,17.35
2023-04-29T03:42:17.047Z,17.55
2023-04-29T03:42:39.854Z,17.15
2023-04-29T03:43:02.628Z,17.40
2023-04-29T03:43:25.450Z,17.23
2023-04-29T03:43:48.216Z,17.50
2023-04-29T03:44:10.980Z,17.85
2023-04-29T03:44:33.649Z,18.23
2023-04-29T03:44:56.494Z,18.45
2023-04-29T03:45:19.432Z,18.17
2023-04-29T03:45:42.192Z,17.80
2023-04-29T03:46:04.984Z,18.30
2023-04-29T03:46:27.716Z,18.40
2023-04-29T03:46:50.681Z,17.90
2023-04-29T03:47:14.084Z,18.20
2023-04-29T03:47:36.817Z,18.05
2023-04-29T03:47:59.568Z,17.83
2023-04-29T03:48:22.754Z,18.38
2023-04-29T03:48:45.451Z,17.90
2023-04-29T03:49:08.219Z,18.13
2023-04-29T03:49:30.952Z,17.25
2023-04-29T03:49:54.079Z,17.38
2023-04-29T03:50:17.848Z,17.27
2023-04-29T03:50:40.565Z,17.38
2023-04-29T03:51:03.478Z,17.75
2023-04-29T03:51:26.320Z,18.27
2023-04-29T03:51:49.103Z,18.40
2023-04-29T03:52:12.717Z,17.13
2023-04-29T03:52:38.921Z,17.00
2023-04-29T03:53:01.616Z,17.15
2023-04-29T03:53:24.652Z,16.60
2023-04-29T03:53:47.347Z,16.13
2023-04-29T03:54:10.752Z,16.08
2023-04-29T03:54:33.441Z,16.90
2023-04-29T03:54:57.598Z,17.33
2023-04-29T03:55:21.128Z,16.80
2023-04-29T03:55:43.840Z,16.77
2023-04-29T03:56:07.221Z,17.00
2023-04-29T03:56:29.916Z,17.50
2023-04-29T03:56:52.725Z,17.77
2023-04-29T03:57:15.369Z,17.58
2023-04-29T03:57:38.899Z,17.05
2023-04-29T03:58:03.508Z,17.27
2023-04-29T03:58:26.267Z,16.88
2023-04-29T03:58:49.218Z,16.73
2023-04-29T03:59:11.864Z,17.75
2023-04-29T03:59:34.798Z,17.40
2023-04-29T03:59:57.460Z,17.10
2023-04-29T04:00:20.300Z,16.77
2023-04-29T04:00:43.301Z,17.38
2023-04-29T04:01:06.048Z,17.45
2023-04-29T04:01:28.823Z,17.58
2023-04-29T04:01:52.836Z,18.23
2023-04-29T04:02:15.918Z,17.70
2023-04-29T04:02:39.021Z,18.02
2023-04-29T04:03:05.087Z,17.50
2023-04-29T04:03:30.205Z,17.45
2023-04-29T04:03:53.337Z,17.85
2023-04-29T04:04:16.427Z,18.00
2023-04-29T04:04:40.870Z,17.23
2023-04-29T04:05:04.224Z,17.70
2023-04-29T04:05:26.996Z,17.35
2023-04-29T04:05:49.925Z,16.92
2023-04-29T04:06:12.717Z,17.50
2023-04-29T04:06:35.446Z,17.77
2023-04-29T04:06:58.174Z,18.20
2023-04-29T04:07:20.837Z,17.30
2023-04-29T04:07:43.576Z,18.08
2023-04-29T04:08:06.691Z,17.90
2023-04-29T04:08:29.569Z,17.90
2023-04-29T04:08:52.421Z,17.92
2023-04-29T04:09:15.180Z,17.35
2023-04-29T04:09:38.400Z,17.30
2023-04-29T04:10:02.545Z,17.17
2023-04-29T04:10:25.573Z,16.38
2023-04-29T04:10:48.415Z,16.98
2023-04-29T04:11:11.577Z,16.05
2023-04-29T04:11:34.281Z,16.00
2023-04-29T04:11:57.272Z,15.60
2023-04-29T04:12:20.064Z,15.73
2023-04-29T04:12:44.277Z,15.48
2023-04-29T04:13:07.605Z,16.33
2023-04-29T04:13:30.370Z,16.73
2023-04-29T04:13:53.115Z,16.73
2023-04-29T04:14:15.830Z,17.10
2023-04-29T04:14:38.570Z,17.08
2023-04-29T04:15:01.469Z,17.23
2023-04-29T04:15:24.630Z,16.83
2023-04-29T04:15:51.321Z,16.30
2023-04-29T04:16:14.080Z,16.15
2023-04-29T04:16:37.046Z,16.73
2023-04-29T04:17:00.118Z,16.27
2023-04-29T04:17:23.009Z,16.20
2023-04-29T04:17:45.802Z,16.60
2023-04-29T04:18:08.686Z,16.05
2023-04-29T04:18:31.550Z,16.10
2023-04-29T04:18:54.310Z,15.52
2023-04-29T04:19:17.090Z,16.25
2023-04-29T04:19:39.905Z,16.02
2023-04-29T04:20:02.649Z,15.45
2023-04-29T04:20:25.429Z,15.38
2023-04-29T04:20:48.170Z,16.00
2023-04-29T04:21:11.750Z,15.82
2023-04-29T04:21:35.507Z,15.55
2023-04-29T04:21:58.253Z,14.77
2023-04-29T04:22:21.211Z,13.80
2023-04-29T04:22:43.988Z,13.90
2023-04-29T04:23:06.664Z,14.27
2023-04-29T04:23:29.337Z,14.23
2023-04-29T04:23:52.128Z,13.73
2023-04-29T04:24:14.930Z,13.82
2023-04-29T04:24:37.666Z,14.00
2023-04-29T04:25:00.968Z,14.52
2023-04-29T04:25:25.628Z,13.45
2023-04-29T04:25:48.454Z,13.88
2023-04-29T04:26:11.209Z,13.38
2023-04-29T04:26:34.027Z,13.90
2023-04-29T04:26:56.796Z,13.43
2023-04-29T04:27:19.580Z,13.65
2023-04-29T04:27:42.298Z,12.15
2023-04-29T04:28:05.213Z,12.68
2023-04-29T04:28:27.964Z,12.55
2023-04-29T04:28:50.725Z,12.23
2023-04-29T04:29:13.446Z,12.38
2023-04-29T04:29:36.146Z,11.95
2023-04-29T04:29:58.868Z,12.05
2023-04-29T04:30:21.925Z,11.82
2023-04-29T04:30:46.260Z,11.40
2023-04-29T04:31:09.113Z,11.88
2023-04-29T04:31:31.977Z,12.20
2023-04-29T04:31:54.905Z,12.20
2023-04-29T04:32:18.440Z,12.00
2023-04-29T04:32:41.501Z,11.57
2023-04-29T04:33:04.449Z,11.55
2023-04-29T04:33:28.189Z,11.40
2023-04-29T04:33:52.490Z,10.93
2023-04-29T04:34:15.206Z,10.85
2023-04-29T04:34:39.516Z,11.05
2023-04-29T04:35:02.250Z,11.07
2023-04-29T04:35:24.952Z,10.75
2023-04-29T04:35:47.997Z,10.70
2023-04-29T04:36:10.928Z,10.40
2023-04-29T04:36:33.759Z,10.38
2023-04-29T04:36:56.763Z,10.15
2023-04-29T04:37:19.515Z,10.15
2023-04-29T04:37:42.281Z,10.02
2023-04-29T04:38:05.605Z,10.05
2023-04-29T04:38:28.321Z,10.10
2023-04-29T04:38:51.142Z,9.35
2023-04-29T04:39:13.911Z,9.40
2023-04-29T04:39:36.716Z,9.70
2023-04-29T04:39:59.423Z,9.13
2023-04-29T04:40:23.109Z,8.90
2023-04-29T04:40:47.483Z,9.88
2023-04-29T04:41:10.404Z,8.82
2023-04-29T04:41:33.624Z,8.30
2023-04-29T04:41:56.327Z,8.27
2023-04-29T04:42:19.072Z,8.70
2023-04-29T04:42:41.925Z,8.80
2023-04-29T04:43:04.650Z,8.80
2023-04-29T04:43:27.770Z,8.68
2023-04-29T04:43:50.556Z,8.90
2023-04-29T04:44:14.268Z,8.98
2023-04-29T04:44:37.766Z,8.88
2023-04-29T04:45:01.061Z,8.57
2023-04-29T04:45:23.794Z,8.60
2023-04-29T04:45:46.709Z,9.23
2023-04-29T04:46:12.397Z,9.23
2023-04-29T04:46:35.286Z,9.00
2023-04-29T04:46:58.408Z,9.10
2023-04-29T04:47:21.156Z,9.43
2023-04-29T04:47:44.153Z,8.95
2023-04-29T04:48:07.226Z,9.10
2023-04-29T04:48:29.987Z,9.20
2023-04-29T04:48:52.717Z,8.82
2023-04-29T04:49:15.738Z,8.90
2023-04-29T04:49:38.451Z,9.10
2023-04-29T04:50:01.372Z,9.30
2023-04-29T04:50:24.235Z,9.18
2023-04-29T04:50:47.524Z,8.98
2023-04-29T04:51:10.777Z,9.00
2023-04-29T04:51:33.486Z,9.10
2023-04-29T04:51:56.248Z,9.13
2023-04-29T04:52:21.614Z,9.20
2023-04-29T04:52:44.357Z,9.30
2023-04-29T04:53:07.043Z,9.52
2023-04-29T04:53:29.760Z,9.07
2023-04-29T04:53:52.449Z,9.43
2023-04-29T04:54:15.206Z,9.38
2023-04-29T04:54:38.569Z,9.45
2023-04-29T04:55:01.367Z,9.20
2023-04-29T04:55:24.136Z,9.65
2023-04-29T04:55:49.969Z,9.60
2023-04-29T04:56:12.773Z,9.43
2023-04-29T04:56:37.698Z,9.55
2023-04-29T04:57:00.665Z,9.10
2023-04-29T04:57:23.361Z,9.65
2023-04-29T04:57:47.147Z,9.43
2023-04-29T04:58:09.809Z,9.57
2023-04-29T04:58:32.958Z,9.68
2023-04-29T04:58:55.795Z,9.70
2023-04-29T04:59:18.789Z,9.25
2023-04-29T04:59:41.652Z,8.98
2023-04-29T05:00:05.394Z,8.98
2023-04-29T05:00:28.051Z,9.18
2023-04-29T05:00:51.855Z,8.88
2023-04-29T05:01:14.677Z,8.90
2023-04-29T05:01:37.520Z,8.95
2023-04-29T05:02:00.717Z,8.90
2023-04-29T05:02:23.728Z,9.13
2023-04-29T05:02:46.945Z,9.27
2023-04-29T05:03:10.007Z,8.88
2023-04-29T05:03:33.067Z,8.82
2023-04-29T05:03:56.112Z,9.02
2023-04-29T05:04:19.262Z,8.98
2023-04-29T05:04:42.075Z,9.27
2023-04-29T05:05:05.883Z,9.07